createdAt,value
2018-04-11T00:00:29.841Z,94762
2018-04-11T00:02:58.844Z,94746
2018-04-11T00:05:27.896Z,94756
2018-04-11T00:07:56.973Z,94764
2018-04-11T00:10:25.991Z,94753
2018-04-11T00:12:55.036Z,94769
2018-04-11T00:15:24.068Z,94759
2018-04-11T00:17:53.146Z,94757
2018-04-11T00:20:22.932Z,94753
2018-04-11T00:22:51.953Z,94754
2018-04-11T00:25:21.029Z,94759
2018-04-11T00:27:50.035Z,94754
2018-04-11T00:30:19.844Z,94748
2018-04-11T00:32:49.624Z,94757
2018-04-11T00:35:18.672Z,94758
2018-04-11T00:37:47.728Z,94760
2018-04-11T00:40:16.750Z,94763
2018-04-11T00:42:46.557Z,94765
2018-04-11T00:45:15.581Z,94759
2018-04-11T00:47:44.669Z,94760
2018-04-11T00:50:13.685Z,94773
2018-04-11T00:55:47.799Z,94767
2018-04-11T00:58:16.868Z,94763
2018-04-11T01:00:46.651Z,94775
2018-04-11T01:03:15.819Z,94771
2018-04-11T01:05:44.835Z,94766
2018-04-11T01:08:13.857Z,94771
2018-04-11T01:10:44.694Z,94778
2018-04-11T01:13:13.733Z,94763
2018-04-11T01:15:42.748Z,94764
2018-04-11T01:18:11.803Z,94762
2018-04-11T01:20:40.831Z,94763
2018-04-11T01:23:09.855Z,94764
2018-04-11T01:25:39.658Z,94776
2018-04-11T01:28:08.684Z,94771
2018-04-11T01:30:37.702Z,94784
2018-04-11T01:33:06.752Z,94779
2018-04-11T01:35:35.787Z,94780
2018-04-11T01:38:04.838Z,94783
2018-04-11T01:40:33.853Z,94772
2018-04-11T01:43:02.891Z,94767
2018-04-11T01:45:31.914Z,94768
2018-04-11T01:48:01.733Z,94769
2018-04-11T01:50:30.765Z,94765
2018-04-11T01:52:59.816Z,94770
2018-04-11T01:55:28.845Z,94763
2018-04-11T01:57:57.899Z,94759
2018-04-11T02:00:26.924Z,94751
2018-04-11T02:02:56.004Z,94751
2018-04-11T02:05:25.028Z,94758
2018-04-11T02:07:54.081Z,94762
2018-04-11T02:10:23.097Z,94770
2018-04-11T02:12:52.143Z,94764
2018-04-11T02:15:21.950Z,94760
2018-04-11T02:17:51.010Z,94762
2018-04-11T02:20:20.033Z,94775
2018-04-11T02:22:49.094Z,94760
2018-04-11T02:25:18.115Z,94762
2018-04-11T02:27:47.166Z,94764
2018-04-11T02:30:16.194Z,94766
2018-04-11T02:32:45.257Z,94769
2018-04-11T02:35:14.272Z,94767
2018-04-11T02:37:43.333Z,94767
2018-04-11T02:40:12.374Z,94767
2018-04-11T02:42:41.430Z,94786
2018-04-11T02:45:10.462Z,94777
2018-04-11T02:47:39.491Z,94778
2018-04-11T02:50:08.573Z,94770
2018-04-11T02:52:38.379Z,94763
2018-04-11T02:55:07.426Z,94766
2018-04-11T02:57:36.478Z,94766
2018-04-11T03:00:05.515Z,94766
2018-04-11T03:02:34.565Z,94763
2018-04-11T03:05:03.594Z,94757
2018-04-11T03:07:32.668Z,94762
2018-04-11T03:10:01.710Z,94761
2018-04-11T03:12:30.725Z,94763
2018-04-11T03:14:59.785Z,94761
2018-04-11T03:17:28.804Z,94763
2018-04-11T03:19:58.590Z,94773
2018-04-11T03:22:27.672Z,94756
2018-04-11T03:24:56.682Z,94770
2018-04-11T03:27:25.696Z,94766
2018-04-11T03:29:55.513Z,94753
2018-04-11T03:32:25.296Z,94755
2018-04-11T03:34:54.341Z,94762
2018-04-11T03:37:23.395Z,94753
2018-04-11T03:39:52.410Z,94765
2018-04-11T03:42:21.473Z,94756
2018-04-11T03:44:50.488Z,94764
2018-04-11T03:47:20.403Z,94771
2018-04-11T03:49:50.233Z,94768
2018-04-11T03:52:19.258Z,94750
2018-04-11T03:54:48.280Z,94757
2018-04-11T03:57:17.331Z,94752
2018-04-11T03:59:46.345Z,94748
2018-04-11T04:02:15.394Z,94748
2018-04-11T04:04:44.412Z,94747
2018-04-11T04:07:13.481Z,94750
2018-04-11T04:09:42.506Z,94752
2018-04-11T04:12:11.575Z,94755
2018-04-11T04:14:58.205Z,94758
2018-04-11T04:17:44.945Z,94764
2018-04-11T04:20:40.418Z,94765
2018-04-11T04:23:09.458Z,94771
2018-04-11T04:25:38.462Z,94772
2018-04-11T04:28:08.276Z,94785
2018-04-11T04:30:37.283Z,94780
2018-04-11T04:33:06.330Z,94780
2018-04-11T04:35:35.328Z,94777
2018-04-11T04:38:04.374Z,94780
2018-04-11T04:40:33.384Z,94777
2018-04-11T04:43:02.442Z,94778
2018-04-11T04:45:31.461Z,94780
2018-04-11T04:48:00.512Z,94786
2018-04-11T04:50:30.299Z,94780
2018-04-11T04:52:59.344Z,94793
2018-04-11T04:55:28.389Z,94792
2018-04-11T04:57:57.533Z,94784
2018-04-11T05:00:26.548Z,94782
2018-04-11T05:02:55.559Z,94795
2018-04-11T05:05:24.607Z,94793
2018-04-11T05:07:53.613Z,94794
2018-04-11T05:10:22.673Z,94797
2018-04-11T05:12:51.694Z,94809
2018-04-11T05:15:20.736Z,94807
2018-04-11T05:17:49.767Z,94802
2018-04-11T05:20:18.896Z,94806
2018-04-11T05:22:47.902Z,94809
2018-04-11T05:25:16.951Z,94816
2018-04-11T05:27:46.002Z,94814
2018-04-11T05:30:15.036Z,94832
2018-04-11T05:32:44.089Z,94812
2018-04-11T05:35:13.131Z,94820
2018-04-11T05:37:42.150Z,94815
2018-04-11T05:40:11.194Z,94812
2018-04-11T05:42:40.234Z,94819
2018-04-11T05:45:09.317Z,94822
2018-04-11T05:47:38.320Z,94808
2018-04-11T05:50:07.360Z,94812
2018-04-11T05:52:36.411Z,94802
2018-04-11T05:55:05.475Z,94812
2018-04-11T05:57:34.496Z,94818
2018-04-11T06:00:03.587Z,94696
2018-04-11T06:02:32.609Z,94819
2018-04-11T06:05:01.674Z,94821
2018-04-11T06:07:30.698Z,94811
2018-04-11T06:09:59.788Z,94825
2018-04-11T06:12:28.811Z,94819
2018-04-11T06:14:57.846Z,94818
2018-04-11T06:17:27.004Z,94820
2018-04-11T06:19:56.026Z,94824
2018-04-11T06:22:25.070Z,94817
2018-04-11T06:24:54.888Z,94816
2018-04-11T06:27:23.908Z,94811
2018-04-11T06:29:53.482Z,94806
2018-04-11T06:32:23.101Z,94816
2018-04-11T06:34:52.281Z,94820
2018-04-11T06:37:21.320Z,94817
2018-04-11T06:39:51.211Z,94824
2018-04-11T06:42:20.981Z,94823
2018-04-11T06:44:51.621Z,94816
2018-04-11T06:47:20.644Z,94815
2018-04-11T06:49:51.253Z,94819
2018-04-11T06:52:20.336Z,94805
2018-04-11T06:54:49.369Z,94804
2018-04-11T06:57:18.430Z,94803
2018-04-11T06:59:47.470Z,94796
2018-04-11T07:02:16.515Z,94801
2018-04-11T07:04:46.319Z,94798
2018-04-11T07:07:15.394Z,94797
2018-04-11T07:09:44.433Z,94797
2018-04-11T07:12:13.456Z,94801
2018-04-11T07:14:42.539Z,94792
2018-04-11T07:17:11.559Z,94792
2018-04-11T07:19:40.606Z,94786
2018-04-11T07:22:10.454Z,94782
2018-04-11T07:24:39.490Z,94783
2018-04-11T07:27:09.290Z,94769
2018-04-11T07:29:38.356Z,94781
2018-04-11T07:32:07.400Z,94777
2018-04-11T07:34:37.210Z,94776
2018-04-11T07:37:06.272Z,94772
2018-04-11T07:39:35.308Z,94768
2018-04-11T07:42:05.199Z,94775
2018-04-11T07:44:34.229Z,94771
2018-04-11T07:47:03.265Z,94782
2018-04-11T07:49:32.430Z,94773
2018-04-11T07:52:01.465Z,94767
2018-04-11T07:54:30.524Z,94763
2018-04-11T07:56:59.580Z,94765
2018-04-11T07:59:29.374Z,94759
2018-04-11T08:01:58.522Z,94765
2018-04-11T08:04:27.549Z,94759
2018-04-11T08:06:56.601Z,94765
2018-04-11T08:09:25.639Z,94764
2018-04-11T08:11:54.682Z,94761
2018-04-11T08:14:23.727Z,94758
2018-04-11T08:16:52.841Z,94760
2018-04-11T08:19:21.930Z,94756
2018-04-11T08:21:51.016Z,94757
2018-04-11T08:24:20.064Z,94752
2018-04-11T08:26:49.126Z,94748
2018-04-11T08:29:18.925Z,94750
2018-04-11T08:31:47.976Z,94749
2018-04-11T08:34:17.003Z,94745
2018-04-11T08:36:46.083Z,94745
2018-04-11T08:39:15.155Z,94754
2018-04-11T08:41:44.284Z,94750
2018-04-11T08:44:13.318Z,94749
2018-04-11T08:46:43.112Z,94750
2018-04-11T08:49:12.198Z,94746
2018-04-11T08:51:41.217Z,94747
2018-04-11T08:54:11.009Z,94746
2018-04-11T08:56:40.071Z,94743
2018-04-11T08:59:09.093Z,94748
2018-04-11T09:01:38.154Z,94746
2018-04-11T09:04:07.173Z,94744
2018-04-11T09:06:36.390Z,94735
2018-04-11T09:09:06.394Z,94738
2018-04-11T09:11:35.419Z,94735
2018-04-11T09:14:05.250Z,94741
2018-04-11T09:16:34.273Z,94739
2018-04-11T09:19:03.339Z,94735
2018-04-11T09:21:32.368Z,94723
2018-04-11T09:24:01.425Z,94729
2018-04-11T09:26:30.462Z,94738
2018-04-11T09:28:59.518Z,94733
2018-04-11T09:31:28.577Z,94729
2018-04-11T09:33:57.610Z,94724
2018-04-11T09:36:26.661Z,94738
2018-04-11T09:38:55.704Z,94740
2018-04-11T09:41:24.751Z,94737
2018-04-11T09:43:53.800Z,94737
2018-04-11T09:46:22.821Z,94743
2018-04-11T09:48:51.914Z,94737
2018-04-11T09:51:20.953Z,94735
2018-04-11T09:53:50.754Z,94744
2018-04-11T09:56:21.102Z,94734
2018-04-11T09:58:50.983Z,94737
2018-04-11T10:01:20.033Z,94739
2018-04-11T10:03:49.040Z,94734
2018-04-11T10:06:18.169Z,94735
2018-04-11T10:08:47.194Z,94726
2018-04-11T10:11:16.253Z,94723
2018-04-11T10:13:45.273Z,94722
2018-04-11T10:16:15.096Z,94727
2018-04-11T10:18:44.108Z,94716
2018-04-11T10:21:13.213Z,94714
2018-04-11T10:23:42.240Z,94714
2018-04-11T10:26:11.305Z,94714
2018-04-11T10:28:40.320Z,94702
2018-04-11T10:31:09.374Z,94701
2018-04-11T10:33:38.419Z,94709
2018-04-11T10:36:07.465Z,94693
2018-04-11T10:38:36.487Z,94692
2018-04-11T10:41:05.570Z,94691
2018-04-11T10:43:34.604Z,94688
2018-04-11T10:46:03.649Z,94684
2018-04-11T10:48:32.782Z,94696
2018-04-11T10:51:01.831Z,94690
2018-04-11T10:53:30.858Z,94685
2018-04-11T10:55:59.917Z,94683
2018-04-11T10:58:28.985Z,94672
2018-04-11T11:00:58.058Z,94674
2018-04-11T11:03:27.117Z,94673
2018-04-11T11:05:56.173Z,94674
2018-04-11T11:08:25.260Z,94677
2018-04-11T11:10:54.307Z,94677
2018-04-11T11:13:23.352Z,94674
2018-04-11T11:15:52.392Z,94674
2018-04-11T11:18:21.453Z,94671
2018-04-11T11:20:58.147Z,94667
2018-04-11T11:23:27.216Z,94669
2018-04-11T11:25:57.050Z,94658
2018-04-11T11:28:26.133Z,94658
2018-04-11T11:30:55.173Z,94665
2018-04-11T11:33:24.237Z,94668
2018-04-11T11:35:53.310Z,94672
2018-04-11T11:38:23.174Z,94662
2018-04-11T11:40:57.251Z,94659
2018-04-11T11:43:27.381Z,94658
2018-04-11T11:45:56.645Z,94658
2018-04-11T11:48:25.642Z,94658
2018-04-11T11:50:55.483Z,94656
2018-04-11T11:53:24.509Z,94656
2018-04-11T11:55:54.586Z,94645
2018-04-11T11:58:23.684Z,94654
2018-04-11T12:00:53.037Z,94643
2018-04-11T12:03:22.082Z,94650
2018-04-11T12:05:51.133Z,94648
2018-04-11T12:08:20.222Z,94642
2018-04-11T12:10:49.243Z,94638
2018-04-11T12:13:19.083Z,94649
2018-04-11T12:15:48.156Z,94649
2018-04-11T12:18:17.245Z,94649
2018-04-11T12:20:46.326Z,94651
2018-04-11T12:23:15.386Z,94645
2018-04-11T12:25:44.413Z,94640
2018-04-11T12:28:13.477Z,94641
2018-04-11T12:30:42.501Z,94639
2018-04-11T12:33:11.717Z,94642
2018-04-11T12:35:40.833Z,94650
2018-04-11T12:38:09.976Z,94651
2018-04-11T12:40:39.177Z,94638
2018-04-11T12:43:08.351Z,94636
2018-04-11T12:45:37.775Z,94644
2018-04-11T12:48:06.920Z,94637
2018-04-11T12:50:36.045Z,94642
2018-04-11T12:53:05.066Z,94624
2018-04-11T12:55:34.108Z,94622
2018-04-11T12:58:03.194Z,94618
2018-04-11T13:00:32.271Z,94618
2018-04-11T13:03:01.342Z,94622
2018-04-11T13:05:30.384Z,94629
2018-04-11T13:08:00.473Z,94631
2018-04-11T13:10:29.494Z,94636
2018-04-11T13:12:58.561Z,94625
2018-04-11T13:15:27.592Z,94628
2018-04-11T13:17:56.710Z,94634
2018-04-11T13:20:25.730Z,94630
2018-04-11T13:22:54.798Z,94634
2018-04-11T13:25:23.827Z,94634
2018-04-11T13:27:52.881Z,94631
2018-04-11T13:30:21.953Z,94627
2018-04-11T13:32:51.768Z,94622
2018-04-11T13:35:21.568Z,94623
2018-04-11T13:37:50.627Z,94613
2018-04-11T13:40:19.646Z,94600
2018-04-11T13:42:48.724Z,94614
2018-04-11T13:45:17.747Z,94607
2018-04-11T13:47:46.774Z,94599
2018-04-11T13:50:15.821Z,94593
2018-04-11T13:52:44.875Z,94601
2018-04-11T13:55:13.898Z,94594
2018-04-11T13:57:42.971Z,94597
2018-04-11T14:00:12.070Z,94502
2018-04-11T14:02:41.137Z,94592
2018-04-11T14:05:10.649Z,94589
2018-04-11T14:07:40.670Z,94592
2018-04-11T14:10:09.704Z,94587
2018-04-11T14:12:38.746Z,94581
2018-04-11T14:15:07.812Z,94587
2018-04-11T14:17:37.669Z,94581
2018-04-11T14:20:06.936Z,94578
2018-04-11T14:22:37.254Z,94572
2018-04-11T14:25:06.473Z,94577
2018-04-11T14:27:36.365Z,94576
2018-04-11T14:30:06.189Z,94568
2018-04-11T14:32:35.219Z,94580
2018-04-11T14:35:04.578Z,94578
2018-04-11T14:37:35.265Z,94578
2018-04-11T14:40:04.336Z,94573
2018-04-11T14:42:33.374Z,94575
2018-04-11T14:45:02.544Z,94557
2018-04-11T14:47:32.489Z,94487
2018-04-11T14:50:01.807Z,94560
2018-04-11T14:52:30.917Z,94549
2018-04-11T14:54:59.965Z,94550
2018-04-11T14:57:29.034Z,94545
2018-04-11T14:59:58.090Z,94551
2018-04-11T15:02:29.243Z,94546
2018-04-11T15:04:58.793Z,94543
2018-04-11T15:07:27.844Z,94541
2018-04-11T15:09:56.949Z,94534
2018-04-11T15:12:26.023Z,94531
2018-04-11T15:14:55.055Z,94526
2018-04-11T15:17:24.145Z,94530
2018-04-11T15:19:53.173Z,94532
2018-04-11T15:22:22.205Z,94538
2018-04-11T15:24:51.296Z,94529
2018-04-11T15:27:21.082Z,94533
2018-04-11T15:29:50.119Z,94533
2018-04-11T15:32:19.191Z,94525
2018-04-11T15:34:49.003Z,94530
2018-04-11T15:37:18.839Z,94532
2018-04-11T15:39:47.883Z,94526
2018-04-11T15:42:16.966Z,94520
2018-04-11T15:44:46.003Z,94542
2018-04-11T15:47:15.062Z,94538
2018-04-11T15:49:44.171Z,94536
2018-04-11T15:52:13.970Z,94459
2018-04-11T15:54:43.025Z,94539
2018-04-11T15:57:12.091Z,94545
2018-04-11T15:59:41.245Z,94538
2018-04-11T16:02:10.389Z,94538
2018-04-11T16:04:39.581Z,94548
2018-04-11T16:07:09.395Z,94543
2018-04-11T16:09:39.177Z,94529
2018-04-11T16:12:09.370Z,94534
2018-04-11T16:14:38.602Z,94527
2018-04-11T16:17:07.935Z,94527
2018-04-11T16:19:36.993Z,94530
2018-04-11T16:22:06.028Z,94528
2018-04-11T16:24:35.196Z,94523
2018-04-11T16:27:04.940Z,94532
2018-04-11T16:29:33.986Z,94522
2018-04-11T16:32:03.148Z,94525
2018-04-11T16:34:32.563Z,94517
2018-04-11T16:37:02.440Z,94519
2018-04-11T16:39:32.238Z,94518
2018-04-11T16:42:01.410Z,94510
2018-04-11T16:44:30.453Z,94517
2018-04-11T16:47:01.193Z,94515
2018-04-11T16:49:30.225Z,94511
2018-04-11T16:51:59.547Z,94519
2018-04-11T16:54:32.265Z,94508
2018-04-11T16:57:01.330Z,94513
2018-04-11T16:59:30.368Z,94515
2018-04-11T17:01:59.426Z,94514
2018-04-11T17:04:28.461Z,94511
2018-04-11T17:06:57.545Z,94506
2018-04-11T17:09:26.587Z,94500
2018-04-11T17:11:55.621Z,94506
2018-04-11T17:14:24.712Z,94499
2018-04-11T17:16:54.496Z,94498
2018-04-11T17:19:23.572Z,94503
2018-04-11T17:22:10.420Z,94496
2018-04-11T17:24:57.126Z,94508
2018-04-11T17:27:44.227Z,94501
2018-04-11T17:30:31.008Z,94496
2018-04-11T17:33:00.083Z,94497
2018-04-11T17:35:29.113Z,94493
2018-04-11T17:37:58.176Z,94491
2018-04-11T17:40:27.225Z,94486
2018-04-11T17:42:57.580Z,94493
2018-04-11T17:45:26.711Z,94487
2018-04-11T17:47:55.865Z,94491
2018-04-11T17:50:25.409Z,94500
2018-04-11T17:52:54.475Z,94494
2018-04-11T17:55:23.479Z,94489
2018-04-11T17:57:52.551Z,94492
2018-04-11T18:00:21.591Z,94489
2018-04-11T18:02:50.750Z,94491
2018-04-11T18:05:20.207Z,94495
2018-04-11T18:07:49.408Z,94499
2018-04-11T18:10:18.442Z,94494
2018-04-11T18:12:47.519Z,94486
2018-04-11T18:15:16.954Z,94492
2018-04-11T18:17:46.334Z,94489
2018-04-11T18:20:15.855Z,94489
2018-04-11T18:22:44.922Z,94491
2018-04-11T18:25:15.010Z,94485
2018-04-11T18:27:44.074Z,94482
2018-04-11T18:30:13.126Z,94485
2018-04-11T18:32:42.285Z,94486
2018-04-11T18:35:11.784Z,94492
2018-04-11T18:37:41.086Z,94478
2018-04-11T18:40:10.389Z,94477
2018-04-11T18:42:39.479Z,94478
2018-04-11T18:45:08.508Z,94482
2018-04-11T18:47:37.578Z,94475
2018-04-11T18:50:06.986Z,94473
2018-04-11T18:52:36.062Z,94484
2018-04-11T18:55:05.092Z,94480
2018-04-11T18:57:34.154Z,94479
2018-04-11T19:00:03.188Z,94480
2018-04-11T19:02:33.042Z,94475
2018-04-11T19:05:02.077Z,94471
2018-04-11T19:07:31.923Z,94479
2018-04-11T19:10:00.963Z,94477
2018-04-11T19:12:30.045Z,94254
2018-04-11T19:14:59.100Z,94480
2018-04-11T19:17:28.157Z,94479
2018-04-11T19:19:57.250Z,94467
2018-04-11T19:22:27.102Z,94474
2018-04-11T19:24:56.341Z,94472
2018-04-11T19:27:25.415Z,94475
2018-04-11T19:29:54.458Z,94468
2018-04-11T19:32:24.286Z,94471
2018-04-11T19:34:53.309Z,94468
2018-04-11T19:37:22.844Z,94457
2018-04-11T19:39:51.925Z,94462
2018-04-11T19:42:21.084Z,94458
2018-04-11T19:44:50.114Z,94453
2018-04-11T19:47:19.142Z,94446
2018-04-11T19:49:49.043Z,94488
2018-04-11T19:52:18.088Z,94442
2018-04-11T19:54:47.123Z,94440
2018-04-11T19:57:18.091Z,94439
2018-04-11T19:59:47.122Z,94439
2018-04-11T20:02:16.197Z,94438
2018-04-11T20:04:45.440Z,94425
2018-04-11T20:07:17.482Z,94428
2018-04-11T20:09:46.504Z,94423
2018-04-11T20:12:16.802Z,94417
2018-04-11T20:14:45.887Z,94421
2018-04-11T20:17:14.948Z,94416
2018-04-11T20:19:44.746Z,94408
2018-04-11T20:22:14.798Z,94409
2018-04-11T20:24:49.011Z,94412
2018-04-11T20:27:18.698Z,94398
2018-04-11T20:29:47.735Z,94398
2018-04-11T20:32:16.771Z,94392
2018-04-11T20:34:46.612Z,94385
2018-04-11T20:37:15.638Z,94423
2018-04-11T20:39:44.696Z,94382
2018-04-11T20:42:14.712Z,94382
2018-04-11T20:44:43.787Z,94376
2018-04-11T20:47:12.806Z,94375
2018-04-11T20:49:41.825Z,94366
2018-04-11T20:52:10.971Z,94362
2018-04-11T20:54:40.822Z,94356
2018-04-11T20:57:09.855Z,94353
2018-04-11T20:59:38.927Z,94349
2018-04-11T21:02:07.953Z,94345
2018-04-11T21:04:38.753Z,94334
2018-04-11T21:07:10.206Z,94331
2018-04-11T21:09:39.798Z,94330
2018-04-11T21:12:08.855Z,94334
2018-04-11T21:14:38.424Z,94331
2018-04-11T21:17:07.519Z,94321
2018-04-11T21:19:36.705Z,94323
2018-04-11T21:22:06.680Z,94318
2018-04-11T21:24:35.827Z,94309
2018-04-11T21:27:04.952Z,94306
2018-04-11T21:29:33.986Z,94305
2018-04-11T21:32:03.042Z,94297
2018-04-11T21:34:32.308Z,94312
2018-04-11T21:37:01.395Z,94296
2018-04-11T21:39:30.425Z,94286
2018-04-11T21:42:00.605Z,94290
2018-04-11T21:44:29.840Z,94291
2018-04-11T21:46:59.698Z,94285
2018-04-11T21:49:28.857Z,94284
2018-04-11T21:51:57.981Z,94294
2018-04-11T21:54:27.032Z,94284
2018-04-11T21:56:56.048Z,94283
2018-04-11T21:59:25.285Z,94274
2018-04-11T22:01:54.303Z,94291
2018-04-11T22:04:24.137Z,94272
2018-04-11T22:06:53.241Z,94270
2018-04-11T22:09:22.265Z,94264
2018-04-11T22:11:51.293Z,94257
2018-04-11T22:14:21.234Z,94257
2018-04-11T22:16:50.282Z,94290
2018-04-11T22:19:19.306Z,94247
2018-04-11T22:21:49.142Z,94244
2018-04-11T22:24:18.187Z,94244
2018-04-11T22:26:48.110Z,94232
2018-04-11T22:29:17.166Z,94232
2018-04-11T22:31:46.203Z,94229
2018-04-11T22:34:15.275Z,94224
2018-04-11T22:36:45.085Z,94227
2018-04-11T22:39:14.153Z,94220
2018-04-11T22:41:43.200Z,94222
2018-04-11T22:44:12.286Z,94211
2018-04-11T22:46:41.303Z,94206
2018-04-11T22:49:10.385Z,94208
2018-04-11T22:51:39.469Z,94205
2018-04-11T22:54:08.529Z,94202
2018-04-11T22:56:37.582Z,94214
2018-04-11T22:59:06.633Z,94198
2018-04-11T23:01:35.687Z,94134
2018-04-11T23:04:04.780Z,94201
2018-04-11T23:06:33.804Z,94204
2018-04-11T23:09:02.892Z,94207
2018-04-11T23:11:31.922Z,94196
2018-04-11T23:14:00.969Z,94202
2018-04-11T23:16:29.995Z,94192
2018-04-11T23:18:59.053Z,94201
2018-04-11T23:21:30.171Z,94185
2018-04-11T23:23:59.241Z,94188
2018-04-11T23:26:28.261Z,94176
2018-04-11T23:29:02.093Z,94187
2018-04-11T23:31:32.731Z,94172
2018-04-11T23:34:01.793Z,94179
2018-04-11T23:36:30.850Z,94163
2018-04-11T23:38:59.953Z,94169
2018-04-11T23:41:28.999Z,94171
2018-04-11T23:43:58.026Z,94159
2018-04-11T23:46:27.156Z,94154
2018-04-11T23:48:56.172Z,94153
2018-04-11T23:51:25.196Z,94148
2018-04-11T23:53:54.360Z,94142
2018-04-11T23:56:23.394Z,94132
2018-04-11T23:58:52.431Z,94136
